Jack northrop Field Hawthorne Municipal Airport Hawthorne US
ICAO: KHHR
IATA: HHR
Category: Medium
Scheduled Services: No

Elevation: 66 ft
TransAlt. 18000 ft.

Airport Communications:
SOCAL APP:124.3
ATIS:118.4
CTAF:121.1
SOCAL DEP:124.3
GND:125.1
HAWTHORNE RDO:122.2
TWR:121.1

KHHR Zoom In..

Runways:

(A) RW 07 length 4956 ft width 100 ft
LOC 109.10 / hdg 73

(B) RW 25 length 4956 ft width 100 ft
LOC 109.10 / hdg 253

Location; KHHR
Day. 15 / Time. 21.53 Zulu
* Altimeter: 29.92
* Temperature: 26° c. 78.8°f.
* Wind from: 250° Speed 11 kn.
Dewpoint: 18° c.
Visibility: 10 Statute Miles.
Clouds: Clear (automated report).

KHHR 152153Z 25011KT 10SM CLR 26/18 A2992 RMK AO2 SLP131 T02610183


Wind From 250°
Speed 11 kn.

 
 
jpsmedia.com for Web Design worldairports.se 2018   terms of use